createdAt,value
2022-10-09T00:00:11.884Z,7.60
2022-10-09T00:02:40.016Z,7.10
2022-10-09T00:05:08.480Z,6.30
2022-10-09T00:07:37.599Z,6.90
2022-10-09T00:10:06.245Z,6.73
2022-10-09T00:12:35.990Z,6.10
2022-10-09T00:15:03.794Z,5.90
2022-10-09T00:17:31.543Z,5.70
2022-10-09T00:19:59.265Z,5.97
2022-10-09T00:22:26.980Z,5.40
2022-10-09T00:24:56.053Z,5.57
2022-10-09T00:27:24.398Z,5.53
2022-10-09T00:29:52.734Z,5.83
2022-10-09T00:32:20.428Z,4.87
2022-10-09T00:34:48.140Z,4.90
2022-10-09T00:37:16.036Z,5.47
2022-10-09T00:39:43.731Z,5.10
2022-10-09T00:42:13.619Z,5.97
2022-10-09T00:44:49.820Z,5.50
2022-10-09T00:47:21.830Z,5.07
2022-10-09T00:49:50.787Z,5.60
2022-10-09T00:52:18.790Z,5.90
2022-10-09T00:54:46.487Z,6.10
2022-10-09T00:57:17.899Z,4.93
2022-10-09T00:59:46.178Z,3.97
2022-10-09T01:02:13.883Z,5.73
2022-10-09T01:04:41.612Z,4.70
2022-10-09T01:07:24.810Z,5.43
2022-10-09T01:09:58.015Z,5.60
2022-10-09T01:12:34.935Z,6.00
2022-10-09T01:15:10.473Z,4.87
2022-10-09T01:17:43.920Z,5.23
2022-10-09T01:20:30.826Z,4.40
2022-10-09T01:23:12.990Z,5.20
2022-10-09T01:25:51.538Z,4.10
2022-10-09T01:28:23.429Z,4.80
2022-10-09T01:30:51.785Z,5.63
2022-10-09T01:33:19.814Z,5.37
2022-10-09T01:35:48.326Z,4.90
2022-10-09T01:38:17.735Z,4.87
2022-10-09T01:40:45.878Z,4.60
2022-10-09T01:43:13.744Z,4.60
2022-10-09T01:45:44.887Z,4.80
2022-10-09T01:48:17.532Z,4.10
2022-10-09T01:50:47.351Z,4.37
2022-10-09T01:53:22.874Z,4.60
2022-10-09T01:55:55.672Z,5.20
2022-10-09T01:58:29.503Z,4.53
2022-10-09T02:01:03.519Z,4.37
2022-10-09T02:03:33.070Z,4.93
2022-10-09T02:06:02.056Z,4.13
2022-10-09T02:08:33.699Z,4.10
2022-10-09T02:11:03.069Z,4.57
2022-10-09T02:13:33.277Z,4.83
2022-10-09T02:16:11.606Z,4.30
2022-10-09T02:18:43.608Z,4.97
2022-10-09T02:21:15.966Z,4.73
2022-10-09T02:23:46.224Z,4.13
2022-10-09T02:26:14.627Z,4.20
2022-10-09T02:28:45.801Z,4.83
2022-10-09T02:31:21.125Z,3.80
2022-10-09T02:33:56.499Z,3.73
2022-10-09T02:36:24.661Z,3.70
2022-10-09T02:38:52.474Z,4.17
2022-10-09T02:41:23.317Z,5.30
2022-10-09T02:43:51.509Z,4.70
2022-10-09T02:46:20.743Z,5.73
2022-10-09T02:48:48.697Z,4.60
2022-10-09T02:51:16.489Z,4.90
2022-10-09T02:53:45.055Z,5.00
2022-10-09T02:56:12.968Z,4.90
2022-10-09T02:58:41.114Z,3.90
2022-10-09T03:01:09.615Z,4.60
2022-10-09T03:03:38.797Z,4.63
2022-10-09T03:06:09.474Z,4.73
2022-10-09T03:08:37.757Z,5.30
2022-10-09T03:11:05.695Z,4.17
2022-10-09T03:13:33.436Z,4.57
2022-10-09T03:16:05.065Z,4.83
2022-10-09T03:18:33.277Z,5.47
2022-10-09T03:21:02.370Z,4.20
2022-10-09T03:23:30.083Z,4.60
2022-10-09T03:25:58.329Z,5.10
2022-10-09T03:28:26.857Z,5.30
2022-10-09T03:30:55.707Z,4.73
2022-10-09T03:33:23.896Z,5.73
2022-10-09T03:35:51.593Z,4.87
2022-10-09T03:38:20.939Z,5.63
2022-10-09T03:40:48.665Z,4.00
2022-10-09T03:43:16.389Z,5.67
2022-10-09T03:45:44.624Z,4.50
2022-10-09T03:48:13.910Z,4.50
2022-10-09T03:50:42.396Z,4.20
2022-10-09T03:53:11.567Z,5.03
2022-10-09T03:55:41.027Z,4.80
2022-10-09T03:58:10.673Z,4.90
2022-10-09T04:00:38.463Z,5.10
2022-10-09T04:03:06.244Z,4.60
2022-10-09T04:05:35.815Z,6.00
2022-10-09T04:08:03.505Z,6.60
2022-10-09T04:10:31.280Z,5.50
2022-10-09T04:13:00.359Z,5.20
2022-10-09T04:15:28.052Z,6.70
2022-10-09T04:17:55.935Z,5.20
2022-10-09T04:20:23.657Z,4.83
2022-10-09T04:22:51.563Z,5.53
2022-10-09T04:25:19.440Z,5.20
2022-10-09T04:27:47.172Z,4.90
2022-10-09T04:30:16.423Z,5.10
2022-10-09T04:32:44.129Z,6.13
2022-10-09T04:35:11.851Z,5.20
2022-10-09T04:37:40.758Z,6.03
2022-10-09T04:40:08.998Z,5.03
2022-10-09T04:42:36.673Z,5.70
2022-10-09T04:45:05.239Z,4.97
2022-10-09T04:47:34.814Z,6.50
2022-10-09T04:50:02.816Z,5.90
2022-10-09T04:52:30.543Z,5.77
2022-10-09T04:54:58.285Z,5.00
2022-10-09T04:57:25.998Z,5.83
2022-10-09T04:59:53.730Z,5.00
2022-10-09T05:02:21.528Z,4.77
2022-10-09T05:04:50.700Z,4.80
2022-10-09T05:07:18.403Z,4.90
2022-10-09T05:09:46.079Z,5.90
2022-10-09T05:12:13.785Z,6.20
2022-10-09T05:14:41.485Z,5.37
2022-10-09T05:17:14.170Z,5.73
2022-10-09T05:19:42.579Z,5.20
2022-10-09T05:22:11.601Z,6.57
2022-10-09T05:24:39.331Z,6.70
2022-10-09T05:27:07.024Z,5.60
2022-10-09T05:29:34.764Z,6.23
2022-10-09T05:32:02.515Z,6.00
2022-10-09T05:34:30.275Z,5.20
2022-10-09T05:36:57.999Z,6.10
2022-10-09T05:39:27.099Z,6.70
2022-10-09T05:41:54.808Z,5.20
2022-10-09T05:44:22.588Z,6.50
2022-10-09T05:46:50.330Z,6.50
2022-10-09T05:49:18.015Z,6.03
2022-10-09T05:51:45.822Z,5.60
2022-10-09T05:54:15.789Z,6.00
2022-10-09T05:56:46.182Z,6.07
2022-10-09T05:59:15.522Z,6.30
2022-10-09T06:01:45.230Z,6.60
2022-10-09T06:04:15.201Z,6.23
2022-10-09T06:06:43.224Z,6.50
2022-10-09T06:09:12.692Z,6.43
2022-10-09T06:11:41.578Z,7.00
2022-10-09T06:14:12.653Z,6.43
2022-10-09T06:16:42.643Z,6.33
2022-10-09T06:19:13.170Z,7.23
2022-10-09T06:21:41.652Z,6.57
2022-10-09T06:24:09.699Z,6.80
2022-10-09T06:26:37.345Z,6.00
2022-10-09T06:29:05.029Z,6.17
2022-10-09T06:31:34.366Z,5.73
2022-10-09T06:34:03.164Z,5.33
2022-10-09T06:36:33.374Z,6.13
2022-10-09T06:39:02.191Z,5.17
2022-10-09T06:41:30.766Z,6.10
2022-10-09T06:43:59.979Z,6.20
2022-10-09T06:46:30.064Z,7.27
2022-10-09T06:48:59.965Z,6.07
2022-10-09T06:51:28.950Z,6.23
2022-10-09T06:53:59.510Z,5.27
2022-10-09T06:56:29.413Z,5.83
2022-10-09T06:58:57.664Z,5.90
2022-10-09T07:01:27.749Z,5.57
2022-10-09T07:03:57.439Z,5.90
2022-10-09T07:06:28.052Z,5.73
2022-10-09T07:08:59.703Z,6.47
2022-10-09T07:11:29.385Z,5.57
2022-10-09T07:13:58.915Z,7.20
2022-10-09T07:16:29.544Z,6.80
2022-10-09T07:18:58.042Z,5.97
2022-10-09T07:21:27.252Z,5.63
2022-10-09T07:23:55.042Z,6.03
2022-10-09T07:26:26.082Z,6.07
2022-10-09T07:28:54.741Z,6.40
2022-10-09T07:31:24.702Z,5.97
2022-10-09T07:33:54.046Z,6.90
2022-10-09T07:36:21.757Z,6.83
2022-10-09T07:38:52.687Z,6.20
2022-10-09T07:41:21.190Z,6.40
2022-10-09T07:43:49.220Z,6.20
2022-10-09T07:46:18.840Z,6.20
2022-10-09T07:48:47.189Z,5.30
2022-10-09T07:51:17.097Z,6.33
2022-10-09T07:53:45.200Z,7.40
2022-10-09T07:56:17.249Z,6.73
2022-10-09T07:58:50.185Z,6.13
2022-10-09T08:01:20.349Z,6.60
2022-10-09T08:03:49.157Z,6.10
2022-10-09T08:06:17.451Z,6.40
2022-10-09T08:08:45.298Z,6.10
2022-10-09T08:11:16.897Z,6.40
2022-10-09T08:13:46.539Z,6.13
2022-10-09T08:16:17.128Z,6.53
2022-10-09T08:18:44.854Z,6.07
2022-10-09T08:21:14.184Z,6.47
2022-10-09T08:23:42.395Z,6.30
2022-10-09T08:26:15.984Z,7.57
2022-10-09T08:28:44.331Z,5.90
2022-10-09T08:31:13.309Z,6.57
2022-10-09T08:33:42.516Z,5.87
2022-10-09T08:36:12.487Z,6.60
2022-10-09T08:38:48.360Z,5.50
2022-10-09T08:41:30.139Z,6.17
2022-10-09T08:44:03.731Z,6.07
2022-10-09T08:46:43.546Z,6.20
2022-10-09T08:49:21.513Z,4.93
2022-10-09T08:51:49.743Z,5.77
2022-10-09T08:54:27.471Z,5.10
2022-10-09T08:56:56.569Z,5.57
2022-10-09T08:59:24.244Z,5.80
2022-10-09T09:02:03.660Z,5.90
2022-10-09T09:04:56.394Z,6.40
2022-10-09T09:07:33.953Z,6.00
2022-10-09T09:10:15.168Z,6.53
2022-10-09T09:12:50.235Z,5.77
2022-10-09T09:15:29.374Z,5.40
2022-10-09T09:18:08.048Z,6.73
2022-10-09T09:20:48.522Z,6.40
2022-10-09T09:23:17.381Z,7.30
2022-10-09T09:25:46.690Z,6.53
2022-10-09T09:28:21.207Z,6.70
2022-10-09T09:30:52.855Z,5.53
2022-10-09T09:33:26.503Z,6.97
2022-10-09T09:36:07.687Z,6.63
2022-10-09T09:38:54.186Z,6.47
2022-10-09T09:41:29.041Z,6.00
2022-10-09T09:43:58.388Z,6.10
2022-10-09T09:46:33.253Z,5.40
2022-10-09T09:49:03.001Z,5.80
2022-10-09T09:51:34.174Z,5.80
2022-10-09T09:54:07.173Z,5.60
2022-10-09T09:56:59.810Z,5.77
2022-10-09T09:59:32.314Z,5.10
2022-10-09T10:02:09.783Z,4.20
2022-10-09T10:04:42.417Z,5.10
2022-10-09T10:07:10.924Z,4.63
2022-10-09T10:09:38.592Z,5.20
2022-10-09T10:12:09.136Z,5.50
2022-10-09T10:14:38.246Z,4.93
2022-10-09T10:17:06.111Z,4.60
2022-10-09T10:19:35.497Z,4.37
2022-10-09T10:22:07.329Z,5.23
2022-10-09T10:24:41.566Z,4.20
2022-10-09T10:27:15.084Z,4.30
2022-10-09T10:29:46.396Z,4.30
2022-10-09T10:32:19.938Z,4.20
2022-10-09T10:34:52.786Z,4.40
2022-10-09T10:37:30.316Z,4.03
2022-10-09T10:40:02.693Z,4.20
2022-10-09T10:42:37.637Z,3.30
2022-10-09T10:45:17.003Z,3.97
2022-10-09T10:47:50.232Z,3.43
2022-10-09T10:50:18.315Z,2.90
2022-10-09T10:53:01.645Z,3.67
2022-10-09T10:55:40.861Z,3.27
2022-10-09T10:58:23.547Z,3.97
2022-10-09T11:01:07.512Z,4.17
2022-10-09T11:03:51.903Z,3.50
2022-10-09T11:06:24.749Z,3.63
2022-10-09T11:09:02.324Z,2.97
2022-10-09T11:11:39.154Z,3.50
2022-10-09T11:14:20.395Z,4.23
2022-10-09T11:17:01.598Z,3.37
2022-10-09T11:19:57.093Z,3.43
2022-10-09T11:22:40.650Z,4.10
2022-10-09T11:25:27.935Z,4.00
2022-10-09T11:28:03.173Z,3.80
2022-10-09T11:30:37.708Z,4.10
2022-10-09T11:33:24.880Z,3.67
2022-10-09T11:35:59.797Z,2.50
2022-10-09T11:38:30.033Z,3.40
2022-10-09T11:41:01.534Z,2.90
2022-10-09T11:43:54.477Z,2.70
2022-10-09T11:46:33.145Z,3.00
2022-10-09T11:49:11.444Z,3.40
2022-10-09T11:51:46.996Z,3.33
2022-10-09T11:54:17.634Z,4.07
2022-10-09T11:56:55.152Z,3.63
2022-10-09T11:59:26.077Z,3.87
2022-10-09T12:01:53.954Z,4.20
2022-10-09T12:04:43.535Z,3.40
2022-10-09T12:07:15.592Z,3.70
2022-10-09T12:09:45.555Z,4.10
2022-10-09T12:12:23.439Z,3.50
2022-10-09T12:14:52.727Z,3.83
2022-10-09T12:17:35.305Z,3.50
2022-10-09T12:20:08.531Z,3.13
2022-10-09T12:22:41.539Z,3.70
2022-10-09T12:25:18.065Z,4.07
2022-10-09T12:27:46.352Z,3.77
2022-10-09T12:30:21.910Z,4.13
2022-10-09T12:32:56.146Z,4.33
2022-10-09T12:35:29.867Z,3.73
2022-10-09T12:37:58.040Z,3.50
2022-10-09T12:40:28.776Z,3.87
2022-10-09T12:43:01.247Z,3.23
2022-10-09T12:45:34.986Z,3.27
2022-10-09T12:48:13.423Z,3.90
2022-10-09T12:50:42.965Z,2.87
2022-10-09T12:53:15.291Z,4.47
2022-10-09T12:55:45.658Z,3.23
2022-10-09T12:58:17.259Z,3.40
2022-10-09T13:00:46.825Z,3.60
2022-10-09T13:03:35.274Z,3.17
2022-10-09T13:06:06.801Z,2.80
2022-10-09T13:08:37.474Z,3.00
2022-10-09T13:11:13.199Z,3.03
2022-10-09T13:13:41.645Z,3.40
2022-10-09T13:16:10.875Z,2.87
2022-10-09T13:18:39.465Z,2.80
2022-10-09T13:21:24.515Z,2.70
2022-10-09T13:23:52.313Z,2.70
2022-10-09T13:26:25.247Z,2.60
2022-10-09T13:28:53.483Z,2.97
2022-10-09T13:31:21.502Z,3.83
2022-10-09T13:33:49.584Z,2.47
2022-10-09T13:36:19.876Z,2.73
2022-10-09T13:38:48.965Z,2.93
2022-10-09T13:41:20.339Z,2.90
2022-10-09T13:43:48.852Z,2.73
2022-10-09T13:46:17.191Z,2.97
2022-10-09T13:48:44.927Z,3.30
2022-10-09T13:51:12.889Z,3.10
2022-10-09T13:53:42.040Z,2.70
2022-10-09T13:56:09.788Z,3.07
2022-10-09T13:58:37.738Z,3.10
2022-10-09T14:01:05.765Z,2.60
2022-10-09T14:03:33.520Z,2.80
2022-10-09T14:06:03.591Z,3.70
2022-10-09T14:08:31.767Z,3.40
2022-10-09T14:11:02.153Z,3.10
2022-10-09T14:13:30.082Z,3.63
2022-10-09T14:15:57.823Z,3.50
2022-10-09T14:18:26.032Z,3.80
2022-10-09T14:20:53.759Z,3.53
2022-10-09T14:23:21.903Z,3.37
2022-10-09T14:25:49.604Z,3.50
2022-10-09T14:28:18.816Z,3.20
2022-10-09T14:30:46.535Z,2.87
2022-10-09T14:33:14.378Z,4.60
2022-10-09T14:35:42.234Z,3.13
2022-10-09T14:38:09.933Z,3.20
2022-10-09T14:40:43.049Z,7.40
2022-10-09T14:43:11.031Z,8.63
2022-10-09T14:45:40.200Z,3.60
2022-10-09T14:48:08.086Z,2.90
2022-10-09T14:50:37.110Z,4.80
2022-10-09T14:53:06.016Z,4.50
2022-10-09T14:55:35.949Z,6.70
2022-10-09T14:58:03.708Z,4.27
2022-10-09T15:00:31.413Z,2.97
2022-10-09T15:03:00.695Z,3.47
2022-10-09T15:05:28.380Z,3.70
2022-10-09T15:07:56.035Z,3.03
2022-10-09T15:10:23.759Z,3.10
2022-10-09T15:12:51.433Z,3.33
2022-10-09T15:15:19.231Z,3.93
2022-10-09T15:17:47.209Z,3.47
2022-10-09T15:20:16.679Z,3.40
2022-10-09T15:22:44.784Z,4.07
2022-10-09T15:25:12.555Z,3.40
2022-10-09T15:27:40.308Z,2.80
2022-10-09T15:30:09.359Z,3.17
2022-10-09T15:32:37.139Z,2.90
2022-10-09T15:35:05.380Z,3.90
2022-10-09T15:37:34.758Z,2.90
2022-10-09T15:40:02.519Z,2.50
2022-10-09T15:42:30.377Z,2.83
2022-10-09T15:44:58.107Z,2.90
2022-10-09T15:47:49.576Z,2.67
2022-10-09T15:50:13.568Z,2.33
2022-10-09T15:52:42.640Z,2.90
2022-10-09T15:55:10.493Z,2.87
2022-10-09T15:57:38.270Z,2.47
2022-10-09T16:00:07.482Z,3.97
2022-10-09T16:02:35.250Z,2.70
2022-10-09T16:05:03.032Z,3.40
2022-10-09T16:07:32.297Z,3.40
2022-10-09T16:10:01.424Z,2.70
2022-10-09T16:12:31.145Z,2.60
2022-10-09T16:15:00.359Z,2.87
2022-10-09T16:17:28.390Z,2.40
2022-10-09T16:19:56.286Z,2.47
2022-10-09T16:22:24.200Z,2.73
2022-10-09T16:24:52.094Z,2.73
2022-10-09T16:27:21.317Z,2.77
2022-10-09T16:29:49.227Z,2.50
2022-10-09T16:32:17.177Z,3.10
2022-10-09T16:34:44.969Z,2.33
2022-10-09T16:37:12.750Z,3.20
2022-10-09T16:39:40.731Z,2.80
2022-10-09T16:42:08.611Z,2.60
2022-10-09T16:44:37.787Z,3.47
2022-10-09T16:47:05.691Z,2.60
2022-10-09T16:49:33.570Z,3.27
2022-10-09T16:52:01.910Z,3.70
2022-10-09T16:54:29.697Z,3.20
2022-10-09T16:56:58.254Z,2.73
2022-10-09T16:59:26.156Z,2.83
2022-10-09T17:01:57.152Z,2.70
2022-10-09T17:04:25.062Z,3.00
2022-10-09T17:06:53.534Z,2.50
2022-10-09T17:09:21.646Z,2.07
2022-10-09T17:11:49.812Z,2.30
2022-10-09T17:14:18.159Z,2.50
2022-10-09T17:16:46.030Z,2.00
2022-10-09T17:19:16.047Z,2.70
2022-10-09T17:21:44.553Z,2.20
2022-10-09T17:24:14.674Z,2.63
2022-10-09T17:26:42.923Z,3.27
2022-10-09T17:29:11.278Z,2.70
2022-10-09T17:31:39.127Z,2.73
2022-10-09T17:34:07.776Z,2.60
2022-10-09T17:36:38.687Z,2.33
2022-10-09T17:39:09.769Z,2.80
2022-10-09T17:41:37.971Z,2.60
2022-10-09T17:44:05.956Z,2.77
2022-10-09T17:46:34.151Z,2.70
2022-10-09T17:49:02.124Z,2.40
2022-10-09T17:51:31.956Z,2.57
2022-10-09T17:54:05.874Z,3.00
2022-10-09T17:56:36.132Z,3.50
2022-10-09T17:59:04.905Z,3.07
2022-10-09T18:01:33.184Z,3.17
2022-10-09T18:04:01.458Z,3.87
2022-10-09T18:06:33.071Z,3.50
2022-10-09T18:09:02.859Z,3.20
2022-10-09T18:11:31.212Z,3.37
2022-10-09T18:13:59.071Z,3.30
2022-10-09T18:16:38.464Z,3.60
2022-10-09T18:19:11.272Z,3.20
2022-10-09T18:21:40.258Z,3.73
2022-10-09T18:24:09.541Z,3.30
2022-10-09T18:26:37.695Z,3.97
2022-10-09T18:29:08.062Z,3.40
2022-10-09T18:31:36.932Z,4.17
2022-10-09T18:34:04.796Z,4.27
2022-10-09T18:36:34.223Z,4.03
2022-10-09T18:39:04.849Z,4.23
2022-10-09T18:41:34.240Z,4.53
2022-10-09T18:44:02.991Z,4.80
2022-10-09T18:46:36.948Z,4.10
2022-10-09T18:49:09.492Z,4.23
2022-10-09T18:51:40.139Z,3.80
2022-10-09T18:54:08.815Z,3.80
2022-10-09T18:56:39.048Z,4.53
2022-10-09T18:59:09.851Z,4.10
2022-10-09T19:01:37.746Z,3.80
2022-10-09T19:04:06.123Z,3.37
2022-10-09T19:06:33.892Z,3.40
2022-10-09T19:09:01.665Z,3.53
2022-10-09T19:11:29.982Z,3.70
2022-10-09T19:14:00.779Z,3.73
2022-10-09T19:16:29.315Z,3.50
2022-10-09T19:18:57.228Z,3.40
2022-10-09T19:21:25.432Z,4.03
2022-10-09T19:23:54.808Z,4.10
2022-10-09T19:26:23.140Z,4.67
2022-10-09T19:28:50.987Z,4.93
2022-10-09T19:31:20.263Z,3.77
2022-10-09T19:33:48.530Z,4.40
2022-10-09T19:36:16.510Z,4.30
2022-10-09T19:38:45.035Z,3.90
2022-10-09T19:41:14.737Z,4.63
2022-10-09T19:43:42.837Z,4.53
2022-10-09T19:46:14.067Z,4.40
2022-10-09T19:48:43.271Z,4.10
2022-10-09T19:51:12.541Z,4.10
2022-10-09T19:53:40.762Z,4.03
2022-10-09T19:56:11.426Z,4.30
2022-10-09T19:58:40.828Z,4.63
2022-10-09T20:01:09.117Z,4.40
2022-10-09T20:03:37.984Z,4.23
2022-10-09T20:06:08.564Z,4.40
2022-10-09T20:08:37.137Z,5.13
2022-10-09T20:11:06.606Z,4.20
2022-10-09T20:13:36.113Z,4.67
2022-10-09T20:16:18.449Z,3.23
